createdAt,value
2022-08-27T00:00:51.330Z,12.25
2022-08-27T00:03:19.378Z,12.19
2022-08-27T00:05:49.069Z,12.29
2022-08-27T00:09:23.772Z,12.29
2022-08-27T00:11:58.181Z,12.22
2022-08-27T00:14:28.347Z,12.22
2022-08-27T00:16:57.848Z,12.16
2022-08-27T00:19:26.822Z,12.21
2022-08-27T00:21:56.310Z,12.16
2022-08-27T00:24:24.562Z,12.25
2022-08-27T00:26:54.273Z,12.28
2022-08-27T00:29:22.386Z,12.33
2022-08-27T00:31:53.370Z,12.37
2022-08-27T00:34:24.019Z,12.36
2022-08-27T00:36:52.494Z,12.39
2022-08-27T00:39:21.281Z,12.33
2022-08-27T00:41:51.946Z,12.43
2022-08-27T00:44:20.162Z,12.41
2022-08-27T00:46:59.047Z,12.43
2022-08-27T00:49:41.374Z,12.44
2022-08-27T00:52:23.121Z,12.42
2022-08-27T00:54:59.668Z,12.46
2022-08-27T00:57:28.626Z,12.27
2022-08-27T00:59:57.088Z,12.47
2022-08-27T01:02:29.937Z,12.48
2022-08-27T01:05:14.084Z,12.48
2022-08-27T01:07:47.017Z,12.49
2022-08-27T01:10:24.239Z,12.51
2022-08-27T01:12:55.223Z,12.53
2022-08-27T01:15:27.012Z,12.55
2022-08-27T01:17:56.852Z,12.57
2022-08-27T01:20:31.027Z,12.61
2022-08-27T01:23:18.498Z,12.62
2022-08-27T01:25:47.192Z,12.59
2022-08-27T01:28:16.945Z,12.65
2022-08-27T01:30:49.991Z,12.65
2022-08-27T01:33:21.368Z,12.58
2022-08-27T01:35:52.165Z,12.59
2022-08-27T01:38:30.805Z,12.62
2022-08-27T01:41:00.904Z,12.62
2022-08-27T01:43:33.206Z,12.62
2022-08-27T01:46:01.275Z,12.57
2022-08-27T01:48:29.245Z,12.64
2022-08-27T01:50:58.223Z,12.63
2022-08-27T01:53:27.865Z,12.64
2022-08-27T01:55:57.531Z,12.64
2022-08-27T01:58:29.387Z,12.65
2022-08-27T02:01:01.626Z,12.69
2022-08-27T02:03:30.034Z,12.72
2022-08-27T02:05:59.167Z,12.71
2022-08-27T02:08:27.178Z,12.65
2022-08-27T02:10:58.762Z,12.72
2022-08-27T02:13:27.027Z,12.72
2022-08-27T02:15:55.363Z,12.73
2022-08-27T02:18:23.546Z,12.68
2022-08-27T02:20:52.443Z,12.72
2022-08-27T02:23:20.493Z,12.74
2022-08-27T02:25:48.561Z,12.74
2022-08-27T02:28:19.197Z,12.76
2022-08-27T02:30:47.215Z,12.79
2022-08-27T02:33:15.338Z,12.75
2022-08-27T02:35:45.005Z,12.75
2022-08-27T02:38:14.878Z,12.76
2022-08-27T02:40:42.917Z,12.80
2022-08-27T02:43:15.749Z,12.79
2022-08-27T02:45:44.202Z,12.83
2022-08-27T02:48:12.842Z,12.87
2022-08-27T02:50:41.265Z,12.83
2022-08-27T02:53:10.352Z,13.03
2022-08-27T02:55:38.550Z,13.08
2022-08-27T02:58:11.128Z,13.07
2022-08-27T03:00:39.275Z,13.09
2022-08-27T03:03:07.694Z,13.23
2022-08-27T03:05:36.943Z,13.28
2022-08-27T03:08:06.558Z,13.35
2022-08-27T03:10:35.559Z,13.48
2022-08-27T03:13:05.372Z,13.54
2022-08-27T03:15:33.374Z,13.82
2022-08-27T03:18:20.392Z,13.88
2022-08-27T03:20:55.572Z,13.97
2022-08-27T03:23:27.573Z,14.03
2022-08-27T03:26:00.236Z,14.05
2022-08-27T03:28:33.941Z,14.10
2022-08-27T03:31:04.903Z,14.23
2022-08-27T03:33:39.087Z,14.30
2022-08-27T03:36:09.387Z,14.41
2022-08-27T03:38:37.419Z,14.44
2022-08-27T03:41:08.048Z,14.41
2022-08-27T03:43:36.159Z,14.30
2022-08-27T03:46:04.212Z,14.36
2022-08-27T03:48:32.968Z,14.36
2022-08-27T03:51:09.522Z,14.30
2022-08-27T03:53:40.822Z,14.24
2022-08-27T03:56:11.091Z,14.10
2022-08-27T03:58:39.376Z,14.09
2022-08-27T04:01:08.999Z,14.02
2022-08-27T04:03:37.538Z,14.06
2022-08-27T04:06:05.788Z,14.08
2022-08-27T04:08:34.050Z,14.04
2022-08-27T04:11:06.697Z,14.04
2022-08-27T04:13:38.458Z,14.09
2022-08-27T04:16:07.056Z,14.21
2022-08-27T04:18:35.243Z,14.30
2022-08-27T04:21:16.865Z,14.27
2022-08-27T04:23:45.244Z,14.33
2022-08-27T04:26:13.444Z,14.36
2022-08-27T04:28:48.551Z,14.35
2022-08-27T04:31:17.814Z,14.43
2022-08-27T04:33:50.584Z,14.41
2022-08-27T04:36:21.454Z,14.38
2022-08-27T04:38:50.266Z,14.29
2022-08-27T04:41:22.087Z,14.16
2022-08-27T04:43:58.348Z,13.91
2022-08-27T04:46:32.464Z,13.43
2022-08-27T04:49:04.049Z,13.60
2022-08-27T04:51:39.974Z,13.38
2022-08-27T04:54:09.352Z,13.17
2022-08-27T04:56:39.753Z,13.00
2022-08-27T04:59:11.448Z,12.82
2022-08-27T05:01:41.610Z,13.09
2022-08-27T05:04:11.683Z,13.14
2022-08-27T05:06:39.895Z,13.57
2022-08-27T05:09:08.138Z,13.88
2022-08-27T05:11:36.297Z,14.05
2022-08-27T05:14:11.160Z,13.98
2022-08-27T05:16:40.427Z,14.08
2022-08-27T05:19:11.213Z,14.23
2022-08-27T05:21:46.284Z,14.09
2022-08-27T05:24:15.079Z,13.83
2022-08-27T05:26:43.080Z,13.49
2022-08-27T05:29:13.972Z,13.03
2022-08-27T05:31:43.042Z,12.77
2022-08-27T05:34:24.446Z,12.43
2022-08-27T05:36:56.271Z,12.42
2022-08-27T05:39:24.375Z,12.50
2022-08-27T05:41:53.468Z,12.60
2022-08-27T05:44:40.003Z,12.87
2022-08-27T05:47:09.155Z,13.06
2022-08-27T05:49:38.415Z,13.09
2022-08-27T05:52:11.143Z,13.06
2022-08-27T05:54:40.365Z,13.00
2022-08-27T05:57:08.948Z,12.93
2022-08-27T05:59:56.192Z,12.90
2022-08-27T06:02:26.335Z,12.83
2022-08-27T06:04:54.653Z,12.76
2022-08-27T06:07:22.871Z,12.64
2022-08-27T06:09:52.015Z,12.74
2022-08-27T06:12:19.979Z,12.75
2022-08-27T06:15:02.101Z,12.96
2022-08-27T06:17:30.844Z,13.10
2022-08-27T06:19:59.022Z,13.12
2022-08-27T06:22:29.892Z,13.30
2022-08-27T06:24:57.926Z,13.39
2022-08-27T06:27:25.980Z,13.40
2022-08-27T06:29:55.227Z,13.40
2022-08-27T06:32:24.649Z,13.51
2022-08-27T06:34:53.058Z,13.66
2022-08-27T06:37:21.272Z,13.79
2022-08-27T06:39:49.506Z,14.01
2022-08-27T06:42:18.327Z,13.92
2022-08-27T06:44:47.363Z,13.79
2022-08-27T06:47:15.391Z,13.76
2022-08-27T06:49:46.322Z,13.63
2022-08-27T06:52:17.117Z,13.60
2022-08-27T06:54:45.666Z,13.33
2022-08-27T06:57:13.682Z,13.59
2022-08-27T06:59:42.982Z,13.67
2022-08-27T07:02:11.526Z,14.04
2022-08-27T07:04:39.580Z,14.27
2022-08-27T07:07:09.985Z,14.37
2022-08-27T07:09:37.989Z,14.38
2022-08-27T07:12:11.912Z,14.35
2022-08-27T07:14:40.054Z,14.58
2022-08-27T07:17:10.898Z,14.49
2022-08-27T07:19:44.042Z,14.57
2022-08-27T07:22:15.333Z,14.74
2022-08-27T07:24:43.438Z,14.95
2022-08-27T07:27:12.198Z,15.19
2022-08-27T07:29:40.669Z,15.21
2022-08-27T07:32:08.688Z,15.10
2022-08-27T07:34:37.063Z,15.04
2022-08-27T07:37:08.034Z,14.88
2022-08-27T07:39:36.085Z,14.73
2022-08-27T07:42:22.981Z,14.48
2022-08-27T07:44:51.034Z,14.36
2022-08-27T07:47:19.212Z,14.31
2022-08-27T07:49:47.596Z,14.20
2022-08-27T07:52:17.308Z,14.47
2022-08-27T07:54:45.770Z,14.91
2022-08-27T07:57:14.749Z,15.15
2022-08-27T07:59:42.707Z,15.06
2022-08-27T08:02:13.673Z,14.73
2022-08-27T08:04:43.288Z,14.49
2022-08-27T08:07:11.886Z,14.32
2022-08-27T08:09:39.971Z,14.36
2022-08-27T08:12:11.031Z,14.34
2022-08-27T08:14:39.188Z,14.39
2022-08-27T08:17:10.266Z,14.37
2022-08-27T08:19:40.815Z,14.29
2022-08-27T08:22:09.344Z,14.39
2022-08-27T08:24:37.651Z,14.43
2022-08-27T08:27:07.698Z,14.33
2022-08-27T08:29:36.469Z,14.16
2022-08-27T08:32:07.241Z,14.19
2022-08-27T08:34:36.946Z,14.45
2022-08-27T08:37:06.349Z,14.50
2022-08-27T08:39:35.645Z,14.38
2022-08-27T08:42:07.575Z,14.39
2022-08-27T08:44:49.489Z,14.39
2022-08-27T08:47:34.014Z,14.44
2022-08-27T08:50:05.042Z,14.33
2022-08-27T08:52:36.167Z,14.10
2022-08-27T08:55:35.961Z,13.90
2022-08-27T08:58:20.632Z,13.62
2022-08-27T09:01:00.167Z,13.65
2022-08-27T09:03:30.606Z,13.57
2022-08-27T09:06:14.116Z,13.51
2022-08-27T09:09:14.095Z,13.44
2022-08-27T09:12:00.416Z,13.39
2022-08-27T09:14:37.812Z,13.41
2022-08-27T09:17:11.291Z,13.41
2022-08-27T09:19:43.094Z,13.36
2022-08-27T09:22:49.605Z,13.38
2022-08-27T09:25:34.449Z,13.35
2022-08-27T09:28:33.272Z,13.20
2022-08-27T09:31:08.813Z,13.16
2022-08-27T09:33:52.417Z,13.09
2022-08-27T09:36:26.719Z,13.12
2022-08-27T09:39:02.932Z,13.07
2022-08-27T09:41:39.638Z,13.09
2022-08-27T09:44:13.638Z,12.83
2022-08-27T09:46:58.003Z,12.90
2022-08-27T09:49:27.225Z,12.89
2022-08-27T09:51:56.675Z,12.73
2022-08-27T09:54:44.050Z,13.05
2022-08-27T09:57:15.455Z,13.26
2022-08-27T09:59:55.126Z,13.27
2022-08-27T10:02:25.829Z,13.25
2022-08-27T10:05:01.243Z,13.22
2022-08-27T10:07:34.918Z,13.23
2022-08-27T10:10:23.790Z,13.31
2022-08-27T10:13:10.757Z,13.31
2022-08-27T10:16:13.162Z,13.31
2022-08-27T10:19:17.083Z,13.24
2022-08-27T10:21:53.928Z,13.09
2022-08-27T10:24:55.297Z,12.93
2022-08-27T10:27:50.753Z,12.84
2022-08-27T10:30:25.172Z,12.67
2022-08-27T10:33:12.237Z,12.87
2022-08-27T10:35:54.894Z,12.95
2022-08-27T10:38:54.278Z,12.94
2022-08-27T10:41:34.614Z,12.95
2022-08-27T10:44:28.023Z,12.94
2022-08-27T10:47:25.574Z,12.95
2022-08-27T10:50:10.958Z,12.85
2022-08-27T10:52:46.754Z,12.76
2022-08-27T10:55:35.896Z,12.71
2022-08-27T10:58:03.835Z,12.67
2022-08-27T11:00:51.103Z,12.60
2022-08-27T11:03:51.980Z,12.49
2022-08-27T11:06:28.360Z,12.45
2022-08-27T11:09:05.337Z,12.32
2022-08-27T11:12:12.633Z,12.14
2022-08-27T11:14:48.217Z,12.19
2022-08-27T11:17:57.601Z,12.12
2022-08-27T11:20:32.852Z,12.07
2022-08-27T11:23:20.944Z,11.99
2022-08-27T11:26:04.635Z,11.99
2022-08-27T11:28:42.785Z,11.95
2022-08-27T11:31:39.934Z,11.97
2022-08-27T11:34:46.801Z,11.91
2022-08-27T11:37:33.618Z,11.86
2022-08-27T11:40:29.612Z,11.87
2022-08-27T11:43:03.647Z,11.91
2022-08-27T11:45:39.185Z,11.93
2022-08-27T11:48:22.924Z,11.88
2022-08-27T11:51:19.022Z,11.99
2022-08-27T11:53:59.947Z,12.03
2022-08-27T11:56:30.914Z,12.07
2022-08-27T11:59:27.905Z,12.09
2022-08-27T12:02:01.273Z,12.11
2022-08-27T12:04:32.031Z,12.10
2022-08-27T12:07:14.906Z,12.07
2022-08-27T12:09:58.678Z,12.09
2022-08-27T12:12:50.965Z,11.91
2022-08-27T12:15:27.545Z,12.07
2022-08-27T12:18:06.438Z,12.12
2022-08-27T12:20:51.229Z,12.15
2022-08-27T12:23:58.611Z,12.16
2022-08-27T12:26:26.656Z,12.16
2022-08-27T12:29:21.707Z,12.16
2022-08-27T12:31:56.969Z,12.17
2022-08-27T12:34:42.890Z,12.11
2022-08-27T12:37:13.784Z,12.08
2022-08-27T12:39:50.211Z,11.98
2022-08-27T12:42:22.340Z,11.91
2022-08-27T12:44:56.702Z,11.81
2022-08-27T12:47:25.614Z,11.67
2022-08-27T12:50:00.595Z,11.59
2022-08-27T12:52:50.433Z,11.50
2022-08-27T12:55:36.922Z,11.44
2022-08-27T12:58:14.942Z,11.37
2022-08-27T13:01:14.300Z,11.29
2022-08-27T13:03:56.292Z,11.21
2022-08-27T13:06:45.360Z,11.22
2022-08-27T13:09:33.117Z,11.15
2022-08-27T13:12:03.301Z,11.04
2022-08-27T13:14:44.012Z,11.11
2022-08-27T13:17:18.735Z,11.12
2022-08-27T13:20:01.467Z,11.08
2022-08-27T13:22:40.432Z,11.04
2022-08-27T13:25:38.979Z,11.00
2022-08-27T13:28:14.534Z,10.93
2022-08-27T13:30:46.898Z,10.89
2022-08-27T13:33:22.710Z,10.87
2022-08-27T13:35:51.508Z,10.89
2022-08-27T13:38:21.966Z,10.90
2022-08-27T13:41:00.825Z,10.85
2022-08-27T13:43:46.365Z,10.77
2022-08-27T13:46:22.253Z,10.75
2022-08-27T13:48:53.969Z,10.69
2022-08-27T13:51:26.955Z,10.66
2022-08-27T13:54:15.018Z,10.56
2022-08-27T13:57:10.390Z,10.63
2022-08-27T13:59:46.411Z,10.45
2022-08-27T14:02:16.669Z,10.58
2022-08-27T14:05:05.337Z,10.54
2022-08-27T14:07:44.879Z,10.51
2022-08-27T14:10:32.746Z,10.48
2022-08-27T14:13:25.372Z,10.43
2022-08-27T14:15:59.757Z,10.41
2022-08-27T14:18:57.830Z,10.17
2022-08-27T14:21:23.743Z,10.31
2022-08-27T14:23:54.756Z,10.23
2022-08-27T14:26:23.239Z,10.25
2022-08-27T14:28:51.851Z,10.21
2022-08-27T14:31:19.933Z,10.09
2022-08-27T14:33:48.114Z,10.13
2022-08-27T14:36:19.091Z,10.06
2022-08-27T14:38:49.636Z,9.94
2022-08-27T14:41:18.847Z,9.87
2022-08-27T14:43:50.471Z,9.85
2022-08-27T14:46:33.728Z,9.79
2022-08-27T14:49:04.807Z,9.78
2022-08-27T14:51:34.877Z,9.77
2022-08-27T14:54:22.407Z,9.71
2022-08-27T14:56:59.611Z,9.64
2022-08-27T14:59:27.961Z,9.58
2022-08-27T15:01:57.809Z,9.55
2022-08-27T15:04:26.820Z,9.53
2022-08-27T15:06:55.620Z,9.52
2022-08-27T15:09:26.145Z,9.48
2022-08-27T15:12:00.125Z,9.41
2022-08-27T15:14:33.425Z,9.36
2022-08-27T15:17:02.854Z,9.38
2022-08-27T15:19:51.891Z,9.37
2022-08-27T15:22:23.223Z,9.23
2022-08-27T15:24:56.901Z,9.27
2022-08-27T15:27:37.895Z,9.16
2022-08-27T15:30:13.074Z,9.21
2022-08-27T15:32:50.295Z,9.18
2022-08-27T15:35:23.866Z,9.12
2022-08-27T15:37:52.088Z,9.13
2022-08-27T15:40:23.064Z,9.14
2022-08-27T15:42:59.744Z,9.13
2022-08-27T15:45:27.978Z,9.12
2022-08-27T15:47:57.553Z,9.11
2022-08-27T15:50:27.342Z,9.11
2022-08-27T15:53:00.620Z,9.07
2022-08-27T15:55:33.339Z,9.01
2022-08-27T15:58:02.137Z,8.99
2022-08-27T16:00:34.775Z,8.99
2022-08-27T16:03:06.459Z,8.96
2022-08-27T16:05:39.960Z,8.92
2022-08-27T16:08:09.398Z,8.87
2022-08-27T16:10:37.727Z,8.80
2022-08-27T16:13:07.973Z,8.70
2022-08-27T16:15:40.176Z,8.68
2022-08-27T16:18:08.987Z,8.62
2022-08-27T16:20:37.664Z,8.58
2022-08-27T16:23:06.414Z,8.54
2022-08-27T16:25:34.556Z,8.58
2022-08-27T16:28:03.523Z,8.57
2022-08-27T16:30:31.712Z,8.59
2022-08-27T16:32:59.894Z,8.60
2022-08-27T16:35:28.274Z,8.58
2022-08-27T16:37:56.394Z,8.51
2022-08-27T16:40:24.383Z,8.42
2022-08-27T16:42:54.059Z,8.52
2022-08-27T16:45:24.294Z,8.45
2022-08-27T16:48:11.666Z,8.40
2022-08-27T16:50:41.556Z,8.33
2022-08-27T16:53:20.029Z,8.30
2022-08-27T16:55:50.888Z,8.24
2022-08-27T16:58:26.084Z,8.13
2022-08-27T17:01:01.014Z,8.10
2022-08-27T17:03:31.111Z,8.00
2022-08-27T17:05:59.715Z,8.02
2022-08-27T17:08:31.139Z,7.96
2022-08-27T17:11:04.869Z,7.89
2022-08-27T17:13:33.443Z,7.87
2022-08-27T17:16:05.334Z,7.77
2022-08-27T17:18:34.734Z,7.78
2022-08-27T17:21:05.172Z,7.77
2022-08-27T17:23:41.178Z,7.72
2022-08-27T17:26:11.371Z,7.64
2022-08-27T17:28:41.501Z,7.54
2022-08-27T17:31:13.127Z,7.57
2022-08-27T17:33:48.007Z,7.51
2022-08-27T17:36:16.369Z,7.45
2022-08-27T17:38:45.166Z,7.38
2022-08-27T17:41:15.992Z,7.32
2022-08-27T17:43:44.200Z,7.24
2022-08-27T17:46:14.358Z,7.07
2022-08-27T17:48:42.903Z,6.94
2022-08-27T17:51:13.138Z,6.97
2022-08-27T17:53:55.946Z,6.85
2022-08-27T17:56:28.180Z,6.73
2022-08-27T17:58:56.627Z,6.84
2022-08-27T18:01:29.348Z,6.79
2022-08-27T18:03:58.955Z,6.74
2022-08-27T18:06:28.442Z,6.69
2022-08-27T18:08:57.005Z,6.68
2022-08-27T18:11:26.078Z,6.66
2022-08-27T18:14:00.555Z,6.65
2022-08-27T18:16:34.263Z,6.59
2022-08-27T18:19:07.000Z,6.58
2022-08-27T18:21:36.152Z,6.50
2022-08-27T18:24:16.409Z,6.40
2022-08-27T18:26:45.646Z,6.22
2022-08-27T18:29:15.823Z,6.32
2022-08-27T18:31:44.737Z,6.26
2022-08-27T18:34:16.379Z,6.28
2022-08-27T18:36:46.930Z,6.28
2022-08-27T18:39:15.641Z,6.20
2022-08-27T18:41:44.708Z,6.25
2022-08-27T18:44:17.536Z,6.24
2022-08-27T18:46:46.063Z,6.22
2022-08-27T18:49:14.203Z,6.20
2022-08-27T18:51:46.162Z,6.13
2022-08-27T18:54:17.963Z,5.99
2022-08-27T18:56:45.946Z,5.89
2022-08-27T18:59:14.351Z,5.96
2022-08-27T19:01:44.941Z,5.89
2022-08-27T19:04:13.639Z,5.90
2022-08-27T19:06:41.568Z,5.87
2022-08-27T19:09:09.752Z,5.85
2022-08-27T19:11:37.880Z,5.79
2022-08-27T19:14:05.989Z,5.72
2022-08-27T19:16:45.113Z,5.71
2022-08-27T19:19:16.933Z,5.56
2022-08-27T19:21:50.638Z,5.65
2022-08-27T19:24:21.909Z,5.56
2022-08-27T19:26:51.992Z,5.58
2022-08-27T19:29:20.850Z,5.48
2022-08-27T19:31:49.365Z,5.56
2022-08-27T19:34:17.710Z,5.52
2022-08-27T19:36:45.881Z,5.43
2022-08-27T19:39:29.663Z,5.44
2022-08-27T19:41:57.790Z,5.43
2022-08-27T19:44:26.925Z,5.34
2022-08-27T19:46:59.766Z,5.36
2022-08-27T19:49:27.868Z,5.31
2022-08-27T19:51:56.759Z,5.20
2022-08-27T19:54:24.869Z,5.33
2022-08-27T19:57:03.968Z,5.37
2022-08-27T19:59:31.967Z,5.27
2022-08-27T20:02:00.005Z,5.21
2022-08-27T20:04:32.922Z,5.21
2022-08-27T20:07:02.329Z,5.16
2022-08-27T20:09:31.287Z,5.07
2022-08-27T20:11:59.443Z,4.71
2022-08-27T20:14:28.824Z,5.04
2022-08-27T20:16:59.077Z,5.02
2022-08-27T20:19:28.166Z,4.94
2022-08-27T20:21:56.250Z,5.01
2022-08-27T20:24:26.027Z,4.86
2022-08-27T20:26:54.288Z,4.87
2022-08-27T20:29:32.583Z,4.88
2022-08-27T20:32:02.324Z,4.81
2022-08-27T20:34:30.473Z,4.78
2022-08-27T20:36:59.674Z,4.80
2022-08-27T20:39:30.077Z,4.80
2022-08-27T20:41:58.242Z,4.71
2022-08-27T20:44:26.317Z,4.64
2022-08-27T20:47:01.011Z,4.70
2022-08-27T20:49:30.386Z,4.65
2022-08-27T20:52:03.540Z,4.61
2022-08-27T20:54:36.256Z,4.59
2022-08-27T20:57:05.256Z,4.49
2022-08-27T20:59:53.244Z,4.25
2022-08-27T21:02:24.857Z,4.52
2022-08-27T21:04:53.070Z,4.46
2022-08-27T21:07:22.957Z,4.33
2022-08-27T21:09:56.162Z,4.40
2022-08-27T21:12:27.081Z,4.42
2022-08-27T21:14:59.140Z,4.45
2022-08-27T21:17:29.165Z,4.49
2022-08-27T21:19:57.627Z,4.38
2022-08-27T21:22:28.044Z,4.42
2022-08-27T21:24:56.200Z,4.48
2022-08-27T21:27:24.723Z,4.48
2022-08-27T21:29:53.401Z,4.39
2022-08-27T21:32:21.532Z,4.47
2022-08-27T21:34:49.739Z,4.39
2022-08-27T21:37:19.056Z,4.48
2022-08-27T21:39:47.082Z,4.47
2022-08-27T21:42:16.393Z,4.44
2022-08-27T21:44:44.561Z,4.33
2022-08-27T21:47:12.636Z,4.37
2022-08-27T21:49:41.697Z,4.36
2022-08-27T21:52:10.120Z,4.29
2022-08-27T21:54:40.275Z,4.19
2022-08-27T21:57:09.631Z,4.41
2022-08-27T21:59:47.886Z,4.44
2022-08-27T22:02:38.924Z,4.42
2022-08-27T22:05:07.965Z,4.52
2022-08-27T22:07:36.257Z,4.55
2022-08-27T22:10:05.728Z,4.58
2022-08-27T22:12:34.994Z,4.62
2022-08-27T22:15:03.736Z,4.67
2022-08-27T22:17:32.399Z,4.63
2022-08-27T22:20:02.101Z,4.66
2022-08-27T22:22:31.796Z,4.72
2022-08-27T22:24:59.835Z,4.75
2022-08-27T22:27:27.981Z,4.77
2022-08-27T22:29:56.071Z,4.76
2022-08-27T22:32:24.357Z,4.83
2022-08-27T22:34:52.544Z,4.84
2022-08-27T22:37:20.531Z,4.82
2022-08-27T22:39:48.453Z,4.84
2022-08-27T22:42:17.871Z,4.89
2022-08-27T22:44:46.154Z,4.92
2022-08-27T22:47:15.681Z,4.95
2022-08-27T22:49:44.995Z,4.97
2022-08-27T22:52:13.581Z,4.95
2022-08-27T22:54:41.646Z,4.90
2022-08-27T22:57:10.616Z,4.96
2022-08-27T22:59:40.269Z,4.96
2022-08-27T23:02:12.713Z,4.98
2022-08-27T23:04:54.544Z,4.84
2022-08-27T23:07:24.415Z,4.93
2022-08-27T23:09:52.471Z,4.86
2022-08-27T23:12:20.486Z,4.92
2022-08-27T23:14:49.532Z,4.80
2022-08-27T23:17:17.448Z,4.90
2022-08-27T23:19:46.411Z,4.91
2022-08-27T23:22:15.640Z,4.91
2022-08-27T23:25:05.324Z,4.88
2022-08-27T23:27:34.959Z,4.91
2022-08-27T23:30:06.577Z,4.87
2022-08-27T23:32:34.663Z,4.90
2022-08-27T23:35:03.285Z,4.88
2022-08-27T23:37:32.658Z,4.75
2022-08-27T23:40:01.516Z,4.83
2022-08-27T23:42:31.979Z,4.83
2022-08-27T23:44:59.950Z,4.86
2022-08-27T23:47:27.978Z,4.90
2022-08-27T23:49:57.111Z,4.87
2022-08-27T23:52:25.770Z,5.06
2022-08-27T23:54:53.963Z,5.18
2022-08-27T23:57:22.116Z,5.24
2022-08-27T23:59:50.067Z,5.20
